createdAt,value
2023-04-06T00:00:00.856Z,0.30
2023-04-06T00:01:00.828Z,0.13
2023-04-06T00:02:00.870Z,0.07
2023-04-06T00:03:00.827Z,0.05
2023-04-06T00:04:00.843Z,0.07
2023-04-06T00:05:00.782Z,-0.05
2023-04-06T00:06:00.778Z,0.07
2023-04-06T00:07:00.735Z,0.02
2023-04-06T00:08:00.743Z,-0.09
2023-04-06T00:09:00.718Z,-0.03
2023-04-06T00:10:00.701Z,-0.06
2023-04-06T00:11:00.680Z,-0.12
2023-04-06T00:12:00.685Z,-0.06
2023-04-06T00:13:00.650Z,-0.02
2023-04-06T00:14:00.634Z,-0.16
2023-04-06T00:15:00.626Z,-0.16
2023-04-06T00:16:00.640Z,-0.05
2023-04-06T00:17:00.726Z,-0.05
2023-04-06T00:18:00.656Z,-0.13
2023-04-06T00:19:00.589Z,-0.12
2023-04-06T00:20:00.583Z,-0.08
2023-04-06T00:21:00.554Z,-0.03
2023-04-06T00:22:00.568Z,-0.06
2023-04-06T00:23:00.515Z,-0.01
2023-04-06T00:24:00.517Z,-0.08
2023-04-06T00:25:00.495Z,0.01
2023-04-06T00:26:00.482Z,-0.23
2023-04-06T00:27:00.467Z,-0.06
2023-04-06T00:28:00.461Z,-0.03
2023-04-06T00:29:00.439Z,-0.08
2023-04-06T00:30:00.576Z,-0.06
2023-04-06T00:31:00.416Z,-0.09
2023-04-06T00:32:00.476Z,-0.08
2023-04-06T00:33:00.884Z,-0.20
2023-04-06T00:34:00.377Z,-0.19
2023-04-06T00:35:00.362Z,-0.20
2023-04-06T00:36:00.697Z,-0.09
2023-04-06T00:37:00.332Z,-0.24
2023-04-06T00:38:00.329Z,-0.26
2023-04-06T00:39:00.298Z,-0.23
2023-04-06T00:40:00.298Z,-0.34
2023-04-06T00:41:00.293Z,-0.31
2023-04-06T00:42:00.272Z,-0.24
2023-04-06T00:43:00.257Z,-0.26
2023-04-06T00:44:00.246Z,-0.32
2023-04-06T00:45:00.238Z,-0.38
2023-04-06T00:46:00.275Z,-0.26
2023-04-06T00:47:00.249Z,-0.34
2023-04-06T00:48:00.249Z,-0.26
2023-04-06T00:49:00.175Z,-0.31
2023-04-06T00:50:00.167Z,-0.30
2023-04-06T00:51:00.152Z,-0.26
2023-04-06T00:52:00.140Z,-0.23
2023-04-06T00:53:00.123Z,-0.30
2023-04-06T00:54:00.147Z,-0.20
2023-04-06T00:55:00.115Z,-0.26
2023-04-06T00:56:00.104Z,-0.24
2023-04-06T00:57:00.096Z,-0.27
2023-04-06T00:58:00.054Z,-0.27
2023-04-06T00:59:00.070Z,-0.34
2023-04-06T01:00:00.063Z,-0.37
2023-04-06T01:01:00.158Z,-0.32
2023-04-06T01:02:00.100Z,-0.35
2023-04-06T01:03:00.044Z,-0.45
2023-04-06T01:04:00.001Z,-0.26
2023-04-06T01:04:59.994Z,-0.38
2023-04-06T01:05:59.964Z,-0.31
2023-04-06T01:06:59.933Z,-0.37
2023-04-06T01:07:59.924Z,-0.38
2023-04-06T01:08:59.925Z,-0.27
2023-04-06T01:09:59.898Z,-0.32
2023-04-06T01:10:59.881Z,-0.38
2023-04-06T01:11:59.872Z,-0.41
2023-04-06T01:12:59.852Z,-0.37
2023-04-06T01:13:59.893Z,-0.44
2023-04-06T01:14:59.828Z,-0.32
2023-04-06T01:15:59.856Z,-0.42
2023-04-06T01:16:59.803Z,-0.44
2023-04-06T01:17:59.809Z,-0.47
2023-04-06T01:18:59.782Z,-0.47
2023-04-06T01:19:59.793Z,-0.50
2023-04-06T01:20:59.750Z,-0.55
2023-04-06T01:21:59.739Z,-0.58
2023-04-06T01:22:59.722Z,-0.59
2023-04-06T01:23:59.713Z,-0.59
2023-04-06T01:24:59.691Z,-0.60
2023-04-06T01:25:59.687Z,-0.55
2023-04-06T01:26:59.673Z,-0.56
2023-04-06T01:27:59.655Z,-0.67
2023-04-06T01:28:59.645Z,-0.62
2023-04-06T01:29:59.634Z,-0.63
2023-04-06T01:30:59.625Z,-0.67
2023-04-06T01:31:59.599Z,-0.70
2023-04-06T01:32:59.622Z,-0.63
2023-04-06T01:33:59.578Z,-0.65
2023-04-06T01:34:59.562Z,-0.78
2023-04-06T01:35:59.583Z,-0.73
2023-04-06T01:36:59.538Z,-0.80
2023-04-06T01:37:59.537Z,-0.85
2023-04-06T01:38:59.511Z,-0.81
2023-04-06T01:39:59.510Z,-0.92
2023-04-06T01:40:59.486Z,-0.89
2023-04-06T01:41:59.467Z,-0.83
2023-04-06T01:42:59.450Z,-0.90
2023-04-06T01:43:59.445Z,-0.99
2023-04-06T01:44:59.430Z,-0.95
2023-04-06T01:45:59.419Z,-1.03
2023-04-06T01:46:59.438Z,-1.00
2023-04-06T01:47:59.482Z,-0.83
2023-04-06T01:48:59.382Z,-1.02
2023-04-06T01:49:59.373Z,-0.99
2023-04-06T01:50:59.346Z,-1.10
2023-04-06T01:51:59.358Z,-1.02
2023-04-06T01:52:59.317Z,-1.07
2023-04-06T01:53:59.314Z,-1.05
2023-04-06T01:54:59.292Z,-0.99
2023-04-06T01:55:59.290Z,-1.10
2023-04-06T01:56:59.267Z,-1.00
2023-04-06T01:57:59.258Z,-1.18
2023-04-06T01:58:59.297Z,-1.13
2023-04-06T01:59:59.231Z,-1.02
2023-04-06T02:00:59.225Z,-1.03
2023-04-06T02:01:59.243Z,-0.97
2023-04-06T02:02:59.221Z,-1.11
2023-04-06T02:03:59.175Z,-0.93
2023-04-06T02:04:59.161Z,-1.08
2023-04-06T02:05:59.149Z,-1.05
2023-04-06T02:06:59.140Z,-1.15
2023-04-06T02:07:59.140Z,-1.13
2023-04-06T02:08:59.102Z,-1.10
2023-04-06T02:09:59.091Z,-1.02
2023-04-06T02:10:59.075Z,-1.08
2023-04-06T02:11:59.065Z,-1.15
2023-04-06T02:12:59.050Z,-1.23
2023-04-06T02:13:59.039Z,-1.28
2023-04-06T02:14:59.025Z,-1.28
2023-04-06T02:15:59.173Z,-1.31
2023-04-06T02:16:59.130Z,-1.31
2023-04-06T02:17:59.012Z,-1.26
2023-04-06T02:18:58.972Z,-1.35
2023-04-06T02:19:58.948Z,-1.18
2023-04-06T02:20:58.946Z,-1.23
2023-04-06T02:21:58.924Z,-1.23
2023-04-06T02:22:58.912Z,-1.29
2023-04-06T02:23:58.925Z,-1.31
2023-04-06T02:24:58.886Z,-1.32
2023-04-06T02:25:58.875Z,-1.25
2023-04-06T02:26:58.859Z,-1.39
2023-04-06T02:27:58.847Z,-1.39
2023-04-06T02:28:58.836Z,-1.26
2023-04-06T02:29:58.821Z,-1.33
2023-04-06T02:30:58.805Z,-1.23
2023-04-06T02:31:58.837Z,-1.18
2023-04-06T02:32:58.798Z,-1.32
2023-04-06T02:33:58.766Z,-1.26
2023-04-06T02:34:58.757Z,-1.26
2023-04-06T02:35:58.952Z,-1.36
2023-04-06T02:36:58.728Z,-1.31
2023-04-06T02:37:59.070Z,-1.38
2023-04-06T02:38:58.700Z,-1.35
2023-04-06T02:39:58.711Z,-1.32
2023-04-06T02:40:58.670Z,-1.39
2023-04-06T02:41:58.661Z,-1.46
2023-04-06T02:42:58.641Z,-1.51
2023-04-06T02:43:58.631Z,-1.36
2023-04-06T02:44:58.629Z,-1.50
2023-04-06T02:45:58.663Z,-1.49
2023-04-06T02:46:58.586Z,-1.46
2023-04-06T02:47:58.626Z,-1.47
2023-04-06T02:48:58.560Z,-1.47
2023-04-06T02:49:58.550Z,-1.43
2023-04-06T02:50:58.533Z,-1.41
2023-04-06T02:51:58.524Z,-1.49
2023-04-06T02:52:58.506Z,-1.44
2023-04-06T02:53:58.497Z,-1.47
2023-04-06T02:54:58.484Z,-1.47
2023-04-06T02:55:58.488Z,-1.61
2023-04-06T02:56:58.446Z,-1.56
2023-04-06T02:57:58.440Z,-1.54
2023-04-06T02:58:58.470Z,-1.59
2023-04-06T02:59:58.410Z,-1.59
2023-04-06T03:00:58.443Z,-1.62
2023-04-06T03:01:58.385Z,-1.64
2023-04-06T03:02:58.484Z,-1.74
2023-04-06T03:03:58.372Z,-1.68
2023-04-06T03:04:58.345Z,-1.67
2023-04-06T03:05:58.334Z,-1.62
2023-04-06T03:07:01.187Z,-1.72
2023-04-06T03:07:58.308Z,-1.70
2023-04-06T03:08:58.303Z,-1.70
2023-04-06T03:09:58.286Z,-1.80
2023-04-06T03:10:58.264Z,-1.80
2023-04-06T03:11:58.276Z,-1.74
2023-04-06T03:12:58.241Z,-1.67
2023-04-06T03:13:58.222Z,-1.74
2023-04-06T03:14:58.210Z,-1.74
2023-04-06T03:15:58.216Z,-1.70
2023-04-06T03:16:58.181Z,-1.72
2023-04-06T03:18:00.241Z,-1.72
2023-04-06T03:18:58.156Z,-1.77
2023-04-06T03:19:58.151Z,-1.83
2023-04-06T03:20:58.134Z,-1.72
2023-04-06T03:21:58.112Z,-1.77
2023-04-06T03:22:58.105Z,-1.80
2023-04-06T03:23:58.090Z,-1.82
2023-04-06T03:24:58.083Z,-1.74
2023-04-06T03:25:58.064Z,-1.85
2023-04-06T03:26:58.045Z,-1.86
2023-04-06T03:27:58.065Z,-1.86
2023-04-06T03:28:58.070Z,-1.86
2023-04-06T03:29:58.020Z,-1.85
2023-04-06T03:30:58.006Z,-1.83
2023-04-06T03:31:57.977Z,-1.88
2023-04-06T03:32:58.272Z,-1.88
2023-04-06T03:33:57.978Z,-1.90
2023-04-06T03:34:57.959Z,-1.89
2023-04-06T03:35:57.964Z,-1.98
2023-04-06T03:37:09.357Z,-1.92
2023-04-06T03:37:58.929Z,-1.86
2023-04-06T03:38:57.885Z,-1.80
2023-04-06T03:39:57.865Z,-1.98
2023-04-06T03:40:57.861Z,-2.00
2023-04-06T03:41:57.836Z,-1.96
2023-04-06T03:42:57.830Z,-2.08
2023-04-06T03:43:57.844Z,-1.98
2023-04-06T03:44:57.806Z,-1.93
2023-04-06T03:45:57.791Z,-1.95
2023-04-06T03:46:57.848Z,-1.96
2023-04-06T03:47:57.777Z,-2.01
2023-04-06T03:48:57.756Z,-1.98
2023-04-06T03:49:57.738Z,-2.01
2023-04-06T03:50:57.716Z,-1.93
2023-04-06T03:51:57.710Z,-2.06
2023-04-06T03:52:57.699Z,-2.01
2023-04-06T03:53:57.681Z,-1.92
2023-04-06T03:54:57.684Z,-1.96
2023-04-06T03:55:57.654Z,-2.06
2023-04-06T03:56:57.641Z,-2.00
2023-04-06T03:57:57.634Z,-1.98
2023-04-06T03:58:57.633Z,-2.21
2023-04-06T03:59:57.638Z,-2.03
2023-04-06T04:00:57.596Z,-2.14
2023-04-06T04:01:57.732Z,-2.11
2023-04-06T04:02:57.635Z,-2.06
2023-04-06T04:03:57.657Z,-2.11
2023-04-06T04:04:57.618Z,-2.01
2023-04-06T04:05:57.784Z,-2.06
2023-04-06T04:06:57.667Z,-2.21
2023-04-06T04:07:57.539Z,-2.10
2023-04-06T04:08:57.505Z,-2.11
2023-04-06T04:09:57.475Z,-2.16
2023-04-06T04:10:57.456Z,-2.04
2023-04-06T04:11:57.546Z,-2.06
2023-04-06T04:12:57.437Z,-2.13
2023-04-06T04:13:57.418Z,-2.01
2023-04-06T04:14:57.413Z,-2.04
2023-04-06T04:15:57.413Z,-2.07
2023-04-06T04:16:57.684Z,-2.18
2023-04-06T04:17:57.448Z,-2.06
2023-04-06T04:18:57.361Z,-2.14
2023-04-06T04:19:57.338Z,-2.03
2023-04-06T04:20:57.411Z,-2.18
2023-04-06T04:21:57.598Z,-2.11
2023-04-06T04:22:57.305Z,-2.19
2023-04-06T04:23:57.292Z,-2.25
2023-04-06T04:24:57.282Z,-2.24
2023-04-06T04:25:57.264Z,-2.10
2023-04-06T04:26:57.264Z,-2.21
2023-04-06T04:27:57.247Z,-2.19
2023-04-06T04:28:57.431Z,-2.25
2023-04-06T04:29:57.222Z,-2.29
2023-04-06T04:30:57.203Z,-2.19
2023-04-06T04:31:57.299Z,-2.28
2023-04-06T04:32:57.242Z,-2.19
2023-04-06T04:33:57.173Z,-2.21
2023-04-06T04:34:57.153Z,-2.21
2023-04-06T04:35:57.254Z,-2.24
2023-04-06T04:36:57.131Z,-2.33
2023-04-06T04:37:57.122Z,-2.35
2023-04-06T04:38:57.109Z,-2.32
2023-04-06T04:39:57.085Z,-2.41
2023-04-06T04:40:57.078Z,-2.35
2023-04-06T04:41:57.063Z,-2.35
2023-04-06T04:42:57.067Z,-2.33
2023-04-06T04:43:57.038Z,-2.40
2023-04-06T04:44:57.024Z,-2.43
2023-04-06T04:45:57.063Z,-2.55
2023-04-06T04:46:57.006Z,-2.43
2023-04-06T04:47:57.156Z,-2.46
2023-04-06T04:48:57.012Z,-2.47
2023-04-06T04:49:56.980Z,-2.46
2023-04-06T04:50:56.954Z,-2.41
2023-04-06T04:51:56.943Z,-2.44
2023-04-06T04:52:56.932Z,-2.35
2023-04-06T04:53:56.913Z,-2.47
2023-04-06T04:54:56.907Z,-2.40
2023-04-06T04:55:56.883Z,-2.38
2023-04-06T04:56:56.870Z,-2.40
2023-04-06T04:57:56.871Z,-2.29
2023-04-06T04:58:56.866Z,-2.25
2023-04-06T04:59:58.014Z,-2.26
2023-04-06T05:00:56.874Z,-2.25
2023-04-06T05:01:56.840Z,-2.26
2023-04-06T05:02:56.894Z,-2.25
2023-04-06T05:03:56.800Z,-2.19
2023-04-06T05:04:56.777Z,-2.13
2023-04-06T05:05:56.763Z,-2.19
2023-04-06T05:06:56.746Z,-2.22
2023-04-06T05:07:56.726Z,-2.19
2023-04-06T05:08:56.734Z,-2.16
2023-04-06T05:09:56.706Z,-2.13
2023-04-06T05:10:56.694Z,-2.22
2023-04-06T05:11:56.677Z,-2.03
2023-04-06T05:12:56.667Z,-2.18
2023-04-06T05:13:56.663Z,-2.04
2023-04-06T05:14:56.643Z,-2.08
2023-04-06T05:15:56.680Z,-2.11
2023-04-06T05:16:56.623Z,-2.14
2023-04-06T05:17:56.730Z,-2.04
2023-04-06T05:18:56.596Z,-2.04
2023-04-06T05:19:56.600Z,-2.00
2023-04-06T05:20:56.564Z,-2.07
2023-04-06T05:21:56.545Z,-2.01
2023-04-06T05:22:56.739Z,-1.93
2023-04-06T05:23:56.528Z,-1.93
2023-04-06T05:24:56.511Z,-1.89
2023-04-06T05:25:56.496Z,-1.93
2023-04-06T05:26:56.486Z,-1.86
2023-04-06T05:27:56.475Z,-1.78
2023-04-06T05:28:56.464Z,-1.80
2023-04-06T05:29:57.916Z,-1.70
2023-04-06T05:30:56.472Z,-1.68
2023-04-06T05:31:56.426Z,-1.53
2023-04-06T05:32:56.410Z,-1.61
2023-04-06T05:33:56.401Z,-1.41
2023-04-06T05:34:56.382Z,-1.62
2023-04-06T05:35:56.460Z,-1.57
2023-04-06T05:36:56.361Z,-1.49
2023-04-06T05:37:56.340Z,-1.38
2023-04-06T05:38:56.325Z,-1.28
2023-04-06T05:39:56.303Z,-1.28
2023-04-06T05:40:56.291Z,-1.14
2023-04-06T05:41:56.292Z,-1.00
2023-04-06T05:42:56.273Z,-0.97
2023-04-06T05:43:56.248Z,-0.89
2023-04-06T05:44:56.236Z,-0.60
2023-04-06T05:45:56.223Z,-0.65
2023-04-06T05:46:56.486Z,-0.58
2023-04-06T05:47:56.218Z,-0.39
2023-04-06T05:48:56.181Z,-0.09
2023-04-06T05:49:56.168Z,0.05
2023-04-06T05:50:56.167Z,0.30
2023-04-06T05:51:56.166Z,0.48
2023-04-06T05:52:56.131Z,0.77
2023-04-06T05:53:56.118Z,0.90
2023-04-06T05:54:56.095Z,1.20
2023-04-06T05:55:56.100Z,1.21
2023-04-06T05:56:56.077Z,1.35
2023-04-06T05:57:56.413Z,1.50
2023-04-06T05:58:56.114Z,1.70
2023-04-06T05:59:56.026Z,1.93
2023-04-06T06:00:56.486Z,2.07
2023-04-06T06:01:56.030Z,2.18
2023-04-06T06:02:56.065Z,2.30
2023-04-06T06:03:55.976Z,2.38
2023-04-06T06:04:56.065Z,2.48
2023-04-06T06:05:55.950Z,2.56
2023-04-06T06:06:55.938Z,2.77
2023-04-06T06:07:55.955Z,3.05
2023-04-06T06:08:55.909Z,2.98
2023-04-06T06:09:55.891Z,3.10
2023-04-06T06:10:55.887Z,3.28
2023-04-06T06:11:55.879Z,3.44
2023-04-06T06:12:55.860Z,3.63
2023-04-06T06:13:55.843Z,3.70
2023-04-06T06:14:55.827Z,3.80
2023-04-06T06:15:55.834Z,3.88
2023-04-06T06:16:55.810Z,3.93
2023-04-06T06:17:55.951Z,4.14
2023-04-06T06:18:55.772Z,4.06
2023-04-06T06:19:55.884Z,4.18
2023-04-06T06:20:55.747Z,4.20
2023-04-06T06:21:55.734Z,4.36
2023-04-06T06:22:55.727Z,4.42
2023-04-06T06:23:55.742Z,4.65
2023-04-06T06:24:55.703Z,4.56
2023-04-06T06:25:55.672Z,4.51
2023-04-06T06:26:55.665Z,4.65
2023-04-06T06:27:55.655Z,4.84
2023-04-06T06:28:55.645Z,5.01
2023-04-06T06:29:55.700Z,5.22
2023-04-06T06:30:55.621Z,5.44
2023-04-06T06:31:55.635Z,5.52
2023-04-06T06:32:55.675Z,5.65
2023-04-06T06:33:55.589Z,5.84
2023-04-06T06:34:55.564Z,5.98
2023-04-06T06:35:55.589Z,6.19
2023-04-06T06:36:55.755Z,6.11
2023-04-06T06:37:55.538Z,5.90
2023-04-06T06:38:55.511Z,5.15
2023-04-06T06:39:55.545Z,4.86
2023-04-06T06:40:55.561Z,4.83
2023-04-06T06:41:55.482Z,5.12
2023-04-06T06:42:55.460Z,5.56
2023-04-06T06:43:55.433Z,5.84
2023-04-06T06:44:55.448Z,6.24
2023-04-06T06:45:55.836Z,6.45
2023-04-06T06:46:55.399Z,6.50
2023-04-06T06:47:55.878Z,6.48
2023-04-06T06:48:55.395Z,6.43
2023-04-06T06:49:55.401Z,6.68
2023-04-06T06:50:55.373Z,6.76
2023-04-06T06:51:55.348Z,7.18
2023-04-06T06:52:55.320Z,7.42
2023-04-06T06:53:55.304Z,7.63
2023-04-06T06:54:57.175Z,7.91
2023-04-06T06:55:55.298Z,8.18
2023-04-06T06:56:55.269Z,8.20
2023-04-06T06:57:55.255Z,8.13
2023-04-06T06:58:55.268Z,8.37
2023-04-06T06:59:55.223Z,8.55
2023-04-06T07:00:55.246Z,8.80
2023-04-06T07:01:55.197Z,8.83
2023-04-06T07:02:55.224Z,8.80
2023-04-06T07:03:55.181Z,8.89
2023-04-06T07:04:55.282Z,9.17
2023-04-06T07:05:55.145Z,9.01
2023-04-06T07:06:55.136Z,9.23
2023-04-06T07:07:55.104Z,9.44
2023-04-06T07:08:55.103Z,9.53
2023-04-06T07:09:55.084Z,9.08
2023-04-06T07:10:55.096Z,9.17
2023-04-06T07:11:55.086Z,9.45
2023-04-06T07:12:55.051Z,9.74
2023-04-06T07:13:55.024Z,9.58
2023-04-06T07:14:55.018Z,9.60
2023-04-06T07:15:55.032Z,9.98
2023-04-06T07:16:55.017Z,9.92
2023-04-06T07:17:55.017Z,9.73
2023-04-06T07:18:54.976Z,9.80
2023-04-06T07:19:55.335Z,10.18
2023-04-06T07:20:54.935Z,10.36
2023-04-06T07:21:54.921Z,10.72
2023-04-06T07:22:55.039Z,11.26
2023-04-06T07:23:54.885Z,11.21
2023-04-06T07:24:54.975Z,11.19
2023-04-06T07:25:54.865Z,11.19
2023-04-06T07:26:54.870Z,11.31
2023-04-06T07:27:54.869Z,11.63
2023-04-06T07:28:54.832Z,10.91
2023-04-06T07:29:54.803Z,9.86
2023-04-06T07:30:54.793Z,9.95
2023-04-06T07:31:54.866Z,10.26
2023-04-06T07:32:54.828Z,10.70
2023-04-06T07:33:54.811Z,10.68
2023-04-06T07:34:54.785Z,10.43
2023-04-06T07:35:54.783Z,10.66
2023-04-06T07:36:54.725Z,10.98
2023-04-06T07:37:54.701Z,11.13
2023-04-06T07:38:54.717Z,11.42
2023-04-06T07:39:54.681Z,12.01
2023-04-06T07:40:54.672Z,12.51
2023-04-06T07:41:54.654Z,12.49
2023-04-06T07:42:55.778Z,12.63
2023-04-06T07:43:54.643Z,13.01
2023-04-06T07:44:54.610Z,13.03
2023-04-06T07:45:54.642Z,13.24
2023-04-06T07:46:54.583Z,13.36
2023-04-06T07:47:54.644Z,13.66
2023-04-06T07:48:54.548Z,13.48
2023-04-06T07:49:54.532Z,13.53
2023-04-06T07:50:54.521Z,13.62
2023-04-06T07:51:54.505Z,13.88
2023-04-06T07:52:54.499Z,14.08
2023-04-06T07:53:54.486Z,14.27
2023-04-06T07:54:54.473Z,13.98
2023-04-06T07:55:54.460Z,14.17
2023-04-06T07:56:54.444Z,14.53
2023-04-06T07:57:54.432Z,14.79
2023-04-06T07:58:54.576Z,14.72
2023-04-06T07:59:54.429Z,14.67
2023-04-06T08:00:54.395Z,14.80
2023-04-06T08:01:54.378Z,14.60
2023-04-06T08:02:54.447Z,14.83
2023-04-06T08:03:54.446Z,14.52
2023-04-06T08:04:54.455Z,14.87
2023-04-06T08:05:54.324Z,14.74
2023-04-06T08:06:54.334Z,14.82
2023-04-06T08:07:54.298Z,14.98
2023-04-06T08:08:54.316Z,14.67
2023-04-06T08:09:54.269Z,14.36
2023-04-06T08:10:54.263Z,14.44
2023-04-06T08:11:54.247Z,14.67
2023-04-06T08:12:54.233Z,15.09
2023-04-06T08:13:54.214Z,15.43
2023-04-06T08:14:54.212Z,15.67
2023-04-06T08:15:54.220Z,16.22
2023-04-06T08:16:54.175Z,16.55
2023-04-06T08:17:54.179Z,16.63
2023-04-06T08:18:54.175Z,16.59
2023-04-06T08:19:54.134Z,16.63
2023-04-06T08:20:54.123Z,16.82
2023-04-06T08:21:54.109Z,16.98
2023-04-06T08:22:54.097Z,17.09
2023-04-06T08:23:54.087Z,17.30
2023-04-06T08:24:54.070Z,17.53
2023-04-06T08:25:54.050Z,17.24
2023-04-06T08:26:54.046Z,16.84
2023-04-06T08:27:54.035Z,17.14
2023-04-06T08:28:54.013Z,17.51
2023-04-06T08:29:54.036Z,17.42
2023-04-06T08:30:54.016Z,17.53
2023-04-06T08:31:54.019Z,17.74
2023-04-06T08:32:54.464Z,17.18
2023-04-06T08:33:53.945Z,17.10
2023-04-06T08:34:53.939Z,17.22
2023-04-06T08:35:54.290Z,17.21
2023-04-06T08:36:53.922Z,17.47
2023-04-06T08:37:53.904Z,17.76
2023-04-06T08:38:53.877Z,17.68
2023-04-06T08:39:54.032Z,18.01
2023-04-06T08:40:53.850Z,18.17
2023-04-06T08:41:53.839Z,18.42
2023-04-06T08:42:53.852Z,18.59
2023-04-06T08:43:53.829Z,18.49
2023-04-06T08:44:53.804Z,18.14
2023-04-06T08:45:53.797Z,18.17
2023-04-06T08:46:53.951Z,18.41
2023-04-06T08:47:53.849Z,18.53
2023-04-06T08:48:53.752Z,18.56
2023-04-06T08:49:53.792Z,18.49
2023-04-06T08:50:53.723Z,18.21
2023-04-06T08:51:53.728Z,18.21
2023-04-06T08:52:53.689Z,17.66
2023-04-06T08:53:53.689Z,17.39
2023-04-06T08:54:53.666Z,17.30
2023-04-06T08:55:53.669Z,17.51
2023-04-06T08:56:53.650Z,18.04
2023-04-06T08:57:53.640Z,18.34
2023-04-06T08:58:55.334Z,18.74
2023-04-06T08:59:53.640Z,18.96
2023-04-06T09:00:53.592Z,18.71
2023-04-06T09:01:53.653Z,18.28
2023-04-06T09:02:53.659Z,18.28
2023-04-06T09:03:53.691Z,18.09
2023-04-06T09:04:53.591Z,18.29
2023-04-06T09:05:53.523Z,18.64
2023-04-06T09:06:53.528Z,19.12
2023-04-06T09:07:53.500Z,19.46
2023-04-06T09:08:53.482Z,19.72
2023-04-06T09:09:53.474Z,20.19
2023-04-06T09:10:53.457Z,20.48
2023-04-06T09:11:53.483Z,20.46
2023-04-06T09:12:53.446Z,20.71
2023-04-06T09:13:53.428Z,20.94
2023-04-06T09:14:53.405Z,21.01
2023-04-06T09:15:53.431Z,21.21
2023-04-06T09:16:53.383Z,21.63
2023-04-06T09:17:53.461Z,21.94
2023-04-06T09:18:53.349Z,21.85
2023-04-06T09:19:53.363Z,21.86
2023-04-06T09:20:53.476Z,22.24
2023-04-06T09:21:53.317Z,22.51
2023-04-06T09:22:53.302Z,22.85
2023-04-06T09:23:53.343Z,22.84
2023-04-06T09:24:53.276Z,23.15
2023-04-06T09:25:53.269Z,23.35
2023-04-06T09:26:53.252Z,23.41
2023-04-06T09:27:53.239Z,23.71
2023-04-06T09:28:53.226Z,24.06
2023-04-06T09:29:53.212Z,24.23
2023-04-06T09:30:53.205Z,24.04
2023-04-06T09:31:53.282Z,24.15
2023-04-06T09:32:53.347Z,24.05
2023-04-06T09:33:53.158Z,24.42
2023-04-06T09:34:53.156Z,24.24
2023-04-06T09:35:53.249Z,23.92
2023-04-06T09:36:53.128Z,23.84
2023-04-06T09:37:53.118Z,23.86
2023-04-06T09:38:53.105Z,24.00
2023-04-06T09:39:53.096Z,23.42
2023-04-06T09:41:00.174Z,22.31
2023-04-06T09:41:54.091Z,21.73
2023-04-06T09:42:53.053Z,21.66
2023-04-06T09:43:53.041Z,21.79
2023-04-06T09:44:53.026Z,22.05
2023-04-06T09:45:53.012Z,22.35
2023-04-06T09:47:00.488Z,22.64
2023-04-06T09:47:54.110Z,23.42
2023-04-06T09:48:52.976Z,24.04
2023-04-06T09:49:52.963Z,24.15
2023-04-06T09:50:52.959Z,24.45
2023-04-06T09:51:52.953Z,24.30
2023-04-06T09:52:52.967Z,24.31
2023-04-06T09:53:52.905Z,24.55
2023-04-06T09:54:53.244Z,24.44
2023-04-06T09:55:52.898Z,24.41
2023-04-06T09:56:52.879Z,23.68
2023-04-06T09:57:52.913Z,22.69
2023-04-06T09:58:52.917Z,22.26
2023-04-06T09:59:53.101Z,22.24
2023-04-06T10:00:54.537Z,22.45
2023-04-06T10:01:52.830Z,22.96
2023-04-06T10:02:52.928Z,23.49
2023-04-06T10:03:52.953Z,23.94
2023-04-06T10:04:52.777Z,24.52
2023-04-06T10:05:52.751Z,24.60
2023-04-06T10:06:52.736Z,24.52
2023-04-06T10:08:00.125Z,24.46
2023-04-06T10:08:53.736Z,24.08
2023-04-06T10:09:52.698Z,24.04
2023-04-06T10:10:52.841Z,23.45
2023-04-06T10:11:52.673Z,22.89
2023-04-06T10:12:52.661Z,23.09
2023-04-06T10:13:52.655Z,23.29
2023-04-06T10:14:52.637Z,23.78
2023-04-06T10:15:52.623Z,23.29
2023-04-06T10:16:52.658Z,23.07
2023-04-06T10:17:52.796Z,23.75
2023-04-06T10:18:52.583Z,23.79
2023-04-06T10:19:52.577Z,23.59
2023-04-06T10:20:52.664Z,23.45
2023-04-06T10:21:52.572Z,22.97
2023-04-06T10:22:52.542Z,23.32
2023-04-06T10:23:52.631Z,23.87
2023-04-06T10:24:52.514Z,24.14
2023-04-06T10:25:52.498Z,24.23
2023-04-06T10:26:52.486Z,24.24
2023-04-06T10:27:52.467Z,24.59
2023-04-06T10:28:52.465Z,24.79
2023-04-06T10:29:52.446Z,24.97
2023-04-06T10:30:52.595Z,25.38
2023-04-06T10:31:52.506Z,24.30
2023-04-06T10:32:52.471Z,24.05
2023-04-06T10:33:52.402Z,24.08
2023-04-06T10:34:52.387Z,23.35
2023-04-06T10:35:52.403Z,22.33
2023-04-06T10:36:52.372Z,21.24
2023-04-06T10:37:52.365Z,21.06
2023-04-06T10:38:52.351Z,21.45
2023-04-06T10:39:52.356Z,21.99
2023-04-06T10:40:52.323Z,22.46
2023-04-06T10:41:52.309Z,22.56
2023-04-06T10:42:52.292Z,22.99
2023-04-06T10:43:52.330Z,23.26
2023-04-06T10:44:52.263Z,23.03
2023-04-06T10:45:52.328Z,22.91
2023-04-06T10:46:52.246Z,22.91
2023-04-06T10:47:52.270Z,22.39
2023-04-06T10:48:52.213Z,21.74
2023-04-06T10:49:52.208Z,21.12
2023-04-06T10:50:52.193Z,20.78
2023-04-06T10:51:52.192Z,20.37
2023-04-06T10:52:52.517Z,20.02
2023-04-06T10:53:52.157Z,19.76
2023-04-06T10:54:52.143Z,18.96
2023-04-06T10:55:52.147Z,18.23
2023-04-06T10:56:52.108Z,18.14
2023-04-06T10:57:52.103Z,17.96
2023-04-06T10:58:52.132Z,17.24
2023-04-06T10:59:52.082Z,16.55
2023-04-06T11:00:52.071Z,15.78
2023-04-06T11:01:52.090Z,15.55
2023-04-06T11:02:52.098Z,15.96
2023-04-06T11:03:52.055Z,16.70
2023-04-06T11:04:52.007Z,17.15
2023-04-06T11:05:52.000Z,17.62
2023-04-06T11:06:51.985Z,18.28
2023-04-06T11:07:51.968Z,18.82
2023-04-06T11:08:51.968Z,19.62
2023-04-06T11:10:11.212Z,20.20
2023-04-06T11:10:52.964Z,20.57
2023-04-06T11:11:51.978Z,21.09
2023-04-06T11:12:51.898Z,21.34
2023-04-06T11:13:51.883Z,21.43
2023-04-06T11:14:51.865Z,21.06
2023-04-06T11:15:51.864Z,20.82
2023-04-06T11:16:51.894Z,21.26
2023-04-06T11:17:52.085Z,21.98
2023-04-06T11:18:51.836Z,22.39
2023-04-06T11:19:51.808Z,22.96
2023-04-06T11:20:51.801Z,23.35
2023-04-06T11:21:51.788Z,23.75
2023-04-06T11:22:51.775Z,24.41
2023-04-06T11:23:51.753Z,24.09
2023-04-06T11:24:51.736Z,23.34
2023-04-06T11:25:51.742Z,23.44
2023-04-06T11:26:51.710Z,23.50
2023-04-06T11:27:51.720Z,23.32
2023-04-06T11:28:51.682Z,23.63
2023-04-06T11:29:51.674Z,23.99
2023-04-06T11:30:51.779Z,24.37
2023-04-06T11:31:51.708Z,24.39
2023-04-06T11:32:51.709Z,23.68
2023-04-06T11:33:51.625Z,23.15
2023-04-06T11:34:51.634Z,22.75
2023-04-06T11:35:51.702Z,22.38
2023-04-06T11:36:51.594Z,21.24
2023-04-06T11:37:51.605Z,21.37
2023-04-06T11:38:51.560Z,22.09
2023-04-06T11:39:51.554Z,22.59
2023-04-06T11:40:51.544Z,23.00
2023-04-06T11:41:51.606Z,22.96
2023-04-06T11:42:51.512Z,22.85
2023-04-06T11:43:51.520Z,22.79
2023-04-06T11:44:51.496Z,22.33
2023-04-06T11:45:51.485Z,22.04
2023-04-06T11:46:51.650Z,21.96
2023-04-06T11:47:51.461Z,21.24
2023-04-06T11:48:51.533Z,20.71
2023-04-06T11:49:51.421Z,21.37
2023-04-06T11:50:51.401Z,22.14
2023-04-06T11:51:51.500Z,21.81
2023-04-06T11:52:51.388Z,21.13
2023-04-06T11:53:51.395Z,20.60
2023-04-06T11:54:51.375Z,21.06
2023-04-06T11:55:51.345Z,21.01
2023-04-06T11:56:51.533Z,19.87
2023-04-06T11:57:51.324Z,18.90
2023-04-06T11:58:51.317Z,18.76
2023-04-06T11:59:51.334Z,19.13
2023-04-06T12:00:51.285Z,19.60
2023-04-06T12:01:51.340Z,20.35
2023-04-06T12:02:51.340Z,20.91
2023-04-06T12:03:51.399Z,20.50
2023-04-06T12:04:51.289Z,20.41
2023-04-06T12:05:51.219Z,20.56
2023-04-06T12:06:51.213Z,19.90
2023-04-06T12:07:51.195Z,19.87
2023-04-06T12:08:51.175Z,20.31
2023-04-06T12:09:51.168Z,20.72
2023-04-06T12:10:51.152Z,21.08
2023-04-06T12:11:51.135Z,20.76
2023-04-06T12:12:51.130Z,20.68
2023-04-06T12:13:51.109Z,20.42
2023-04-06T12:14:51.106Z,20.66
2023-04-06T12:15:51.196Z,21.22
2023-04-06T12:16:51.071Z,21.46
2023-04-06T12:17:51.111Z,21.79
2023-04-06T12:18:51.043Z,21.90
2023-04-06T12:19:51.032Z,21.94
2023-04-06T12:20:51.223Z,21.68
2023-04-06T12:21:51.006Z,20.90
2023-04-06T12:22:50.994Z,20.56
2023-04-06T12:23:50.984Z,20.72
2023-04-06T12:24:50.968Z,21.00
2023-04-06T12:25:50.953Z,21.45
2023-04-06T12:26:54.009Z,21.93
2023-04-06T12:27:52.045Z,21.89
2023-04-06T12:28:50.904Z,21.98
2023-04-06T12:29:50.899Z,21.89
2023-04-06T12:30:50.887Z,22.19
2023-04-06T12:31:50.959Z,22.01
2023-04-06T12:32:51.464Z,22.06
2023-04-06T12:33:50.861Z,22.57
2023-04-06T12:34:50.837Z,23.15
2023-04-06T12:35:50.826Z,23.19
2023-04-06T12:36:50.847Z,23.22
2023-04-06T12:37:50.922Z,23.53
2023-04-06T12:38:50.789Z,23.62
2023-04-06T12:39:50.773Z,23.81
2023-04-06T12:40:50.758Z,24.12
2023-04-06T12:41:50.769Z,24.45
2023-04-06T12:42:50.740Z,24.52
2023-04-06T12:43:50.721Z,23.78
2023-04-06T12:44:50.713Z,23.75
2023-04-06T12:45:50.694Z,22.56
2023-04-06T12:46:50.722Z,21.59
2023-04-06T12:47:50.864Z,21.26
2023-04-06T12:48:50.701Z,21.61
2023-04-06T12:49:50.636Z,21.63
2023-04-06T12:50:50.630Z,21.30
2023-04-06T12:51:50.620Z,21.37
2023-04-06T12:52:50.618Z,21.75
2023-04-06T12:53:50.590Z,21.93
2023-04-06T12:54:51.503Z,21.93